Time;durP1;ratioP1;P1;durP2;ratioP2;P2;SDS_P1;SDS_P2;PMS_P1;PMS_P2;Temp;Humidity;BMP_temperature;BMP_pressure;BME280_temperature;BME280_humidity;BME280_pressure;Samples;Min_cycle;Max_cycle;Signal;HPM_P1;HPM_P2
2022/09/29 00:00:15;;;;;;;4.40;1.37;;;;;;;;;;5094056;28;20277;-77
2022/09/29 00:02:42;;;;;;;5.53;1.33;;;;;;;;;;5100803;28;20741;-78
2022/09/29 00:05:09;;;;;;;4.47;1.50;;;;;;;;;;5094479;28;20285;-77
2022/09/29 00:07:37;;;;;;;7.70;1.40;;;;;;;;;;5083652;28;20306;-77
2022/09/29 00:10:04;;;;;;;7.83;1.50;;;;;;;;;;5085345;28;20290;-77
2022/09/29 00:12:32;;;;;;;3.57;1.30;;;;;;;;;;5089027;28;20879;-77
2022/09/29 00:15:01;;;;;;;3.23;1.40;;;;;;;;;;5083243;28;20291;-77
2022/09/29 00:17:29;;;;;;;5.47;1.50;;;;;;;;;;5079331;28;20286;-77
2022/09/29 00:19:56;;;;;;;5.50;1.43;;;;;;;;;;5074390;28;20264;-77
2022/09/29 00:22:24;;;;;;;5.10;1.40;;;;;;;;;;5086191;28;20274;-77
2022/09/29 00:24:51;;;;;;;5.97;1.40;;;;;;;;;;5095405;28;20229;-77
2022/09/29 00:27:19;;;;;;;2.80;1.17;;;;;;;;;;5091862;28;20568;-77
2022/09/29 00:29:47;;;;;;;7.13;1.30;;;;;;;;;;5103573;28;20209;-77
2022/09/29 00:32:15;;;;;;;7.00;1.77;;;;;;;;;;5090257;28;20222;-77
2022/09/29 00:34:43;;;;;;;6.40;1.30;;;;;;;;;;5087458;28;20291;-77
2022/09/29 00:37:10;;;;;;;5.50;1.40;;;;;;;;;;5097884;28;20700;-77
2022/09/29 00:39:37;;;;;;;6.07;1.50;;;;;;;;;;5095226;28;20234;-76
2022/09/29 00:42:05;;;;;;;6.70;1.60;;;;;;;;;;5076535;28;20690;-77
2022/09/29 00:44:51;;;;;;;2.90;1.17;;;;;;;;;;5084308;28;20290;-77
2022/09/29 00:47:20;;;;;;;4.73;1.40;;;;;;;;;;5073734;28;20272;-77
2022/09/29 00:49:49;;;;;;;3.90;1.30;;;;;;;;;;5099305;28;20240;-77
2022/09/29 00:52:20;;;;;;;4.13;1.37;;;;;;;;;;5094759;28;20254;-77
2022/09/29 00:54:49;;;;;;;6.00;1.77;;;;;;;;;;5086106;28;20304;-77
2022/09/29 00:57:18;;;;;;;4.03;1.40;;;;;;;;;;5085480;28;20306;-77
2022/09/29 00:59:48;;;;;;;6.37;1.70;;;;;;;;;;5075319;28;20285;-77
2022/09/29 01:02:16;;;;;;;6.50;1.50;;;;;;;;;;5074709;28;20222;-77
2022/09/29 01:04:45;;;;;;;8.53;1.53;;;;;;;;;;5100756;28;20238;-77
2022/09/29 01:07:13;;;;;;;8.33;1.67;;;;;;;;;;5107504;28;20225;-77
2022/09/29 01:09:41;;;;;;;5.03;1.47;;;;;;;;;;5074721;28;20294;-77
2022/09/29 01:12:08;;;;;;;4.30;1.50;;;;;;;;;;5103491;28;20309;-76
2022/09/29 01:14:36;;;;;;;6.83;1.80;;;;;;;;;;5088513;28;20242;-76
2022/09/29 01:17:06;;;;;;;6.30;1.70;;;;;;;;;;5100249;28;20198;-77
2022/09/29 01:19:39;;;;;;;5.47;1.50;;;;;;;;;;5112447;28;20288;-77
2022/09/29 01:22:12;;;;;;;6.23;1.50;;;;;;;;;;5084016;28;20871;-76
2022/09/29 01:24:57;;;;;;;6.07;1.60;;;;;;;;;;5111193;28;20233;-76
2022/09/29 01:27:28;;;;;;;5.33;1.50;;;;;;;;;;5089947;28;20199;-77
2022/09/29 01:30:08;;;;;;;5.00;1.37;;;;;;;;;;5082300;28;20233;-77
2022/09/29 01:32:50;;;;;;;7.93;1.40;;;;;;;;;;5108027;28;20225;-77
2022/09/29 01:35:23;;;;;;;5.50;1.77;;;;;;;;;;5099690;28;20285;-76
2022/09/29 01:37:58;;;;;;;7.07;1.63;;;;;;;;;;5079492;28;20286;-77
2022/09/29 01:40:27;;;;;;;4.60;1.40;;;;;;;;;;5077085;28;20266;-77
2022/09/29 01:42:58;;;;;;;4.17;1.17;;;;;;;;;;5095633;28;20233;-77
2022/09/29 01:45:27;;;;;;;2.87;1.57;;;;;;;;;;5085199;28;20290;-77
2022/09/29 01:47:57;;;;;;;6.60;1.80;;;;;;;;;;5108221;28;20301;-77
2022/09/29 01:50:29;;;;;;;6.77;1.43;;;;;;;;;;5081053;28;20284;-77
2022/09/29 01:52:59;;;;;;;8.37;1.57;;;;;;;;;;5075515;28;20306;-77
2022/09/29 01:55:29;;;;;;;4.83;1.40;;;;;;;;;;5085247;28;20290;-77
2022/09/29 01:57:58;;;;;;;5.97;1.50;;;;;;;;;;5084027;28;20825;-77
2022/09/29 02:00:30;;;;;;;5.87;1.47;;;;;;;;;;5081848;28;20659;-77
2022/09/29 02:02:59;;;;;;;6.30;1.63;;;;;;;;;;5084929;28;20194;-76
2022/09/29 02:05:29;;;;;;;8.37;1.60;;;;;;;;;;5098014;28;20226;-77
2022/09/29 02:07:58;;;;;;;9.63;1.50;;;;;;;;;;5081404;28;20317;-77
2022/09/29 02:10:29;;;;;;;5.97;1.30;;;;;;;;;;5107989;28;20747;-77
2022/09/29 02:12:58;;;;;;;4.90;1.17;;;;;;;;;;5087408;28;20648;-77
2022/09/29 02:15:27;;;;;;;7.00;1.20;;;;;;;;;;5104035;28;20229;-77
2022/09/29 02:17:56;;;;;;;9.13;1.53;;;;;;;;;;5088508;28;20222;-77
2022/09/29 02:20:23;;;;;;;2.93;1.20;;;;;;;;;;5099422;28;20229;-76
2022/09/29 02:22:52;;;;;;;5.27;1.17;;;;;;;;;;5103041;28;20282;-77
2022/09/29 02:25:19;;;;;;;8.07;1.70;;;;;;;;;;5088638;28;20301;-77
2022/09/29 02:27:49;;;;;;;5.90;1.30;;;;;;;;;;5074081;28;20289;-77
2022/09/29 02:30:16;;;;;;;7.37;1.57;;;;;;;;;;5078560;28;20561;-77
2022/09/29 02:32:44;;;;;;;5.20;1.20;;;;;;;;;;5087556;28;20225;-77
2022/09/29 02:35:13;;;;;;;6.10;1.40;;;;;;;;;;5092756;28;20252;-77
2022/09/29 02:37:46;;;;;;;6.80;1.40;;;;;;;;;;5092500;28;20286;-77
2022/09/29 02:40:24;;;;;;;3.70;1.30;;;;;;;;;;5092176;28;20238;-76
2022/09/29 02:42:56;;;;;;;5.30;1.50;;;;;;;;;;5078043;28;20195;-77
2022/09/29 02:45:28;;;;;;;4.00;1.00;;;;;;;;;;5087231;28;20212;-77
2022/09/29 02:48:04;;;;;;;5.50;1.30;;;;;;;;;;5089835;28;20210;-77
2022/09/29 02:50:42;;;;;;;4.87;1.47;;;;;;;;;;5081184;28;20286;-77
2022/09/29 02:53:14;;;;;;;5.47;1.30;;;;;;;;;;5071941;28;20250;-77
2022/09/29 02:55:47;;;;;;;5.03;1.40;;;;;;;;;;5090991;28;20290;-77
2022/09/29 02:58:16;;;;;;;3.03;1.13;;;;;;;;;;5090748;28;20216;-77
2022/09/29 03:00:44;;;;;;;2.83;1.20;;;;;;;;;;5086152;28;20291;-77
2022/09/29 03:03:11;;;;;;;4.43;1.10;;;;;;;;;;5094255;28;20206;-77
2022/09/29 03:05:38;;;;;;;5.00;1.33;;;;;;;;;;5094255;28;20281;-77
2022/09/29 03:08:05;;;;;;;5.27;1.30;;;;;;;;;;5086878;28;20352;-77
2022/09/29 03:10:32;;;;;;;4.17;1.20;;;;;;;;;;5083752;28;20288;-77
2022/09/29 03:13:01;;;;;;;6.63;1.07;;;;;;;;;;5110265;28;20304;-77
2022/09/29 03:15:28;;;;;;;1.90;1.10;;;;;;;;;;5113309;28;20289;-77
2022/09/29 03:17:56;;;;;;;4.70;1.30;;;;;;;;;;5098664;28;20293;-77
2022/09/29 03:20:24;;;;;;;4.73;1.30;;;;;;;;;;5085991;28;20661;-77
2022/09/29 03:22:52;;;;;;;5.27;1.40;;;;;;;;;;5093117;28;20207;-77
2022/09/29 03:25:20;;;;;;;4.47;1.30;;;;;;;;;;5088167;28;20208;-77
2022/09/29 03:27:47;;;;;;;3.60;1.20;;;;;;;;;;5073145;28;20199;-77
2022/09/29 03:30:15;;;;;;;3.87;1.60;;;;;;;;;;5104401;28;20208;-77
2022/09/29 03:32:43;;;;;;;6.47;1.40;;;;;;;;;;5094489;28;20280;-77
2022/09/29 03:35:11;;;;;;;4.20;1.33;;;;;;;;;;5071732;28;20769;-77
2022/09/29 03:37:38;;;;;;;5.03;1.17;;;;;;;;;;5092128;28;20330;-76
2022/09/29 03:40:06;;;;;;;3.07;1.40;;;;;;;;;;5099396;28;20309;-77
2022/09/29 03:42:33;;;;;;;4.33;1.30;;;;;;;;;;5091830;28;20216;-77
2022/09/29 03:45:00;;;;;;;3.13;1.30;;;;;;;;;;5112384;28;20293;-77
2022/09/29 03:47:29;;;;;;;3.13;1.20;;;;;;;;;;5094598;28;20289;-77
2022/09/29 03:49:56;;;;;;;5.13;1.37;;;;;;;;;;5094850;28;20281;-77
2022/09/29 03:52:23;;;;;;;3.73;1.20;;;;;;;;;;5095561;28;20229;-77
2022/09/29 03:54:50;;;;;;;3.17;1.40;;;;;;;;;;5090813;28;20279;-77
2022/09/29 03:57:18;;;;;;;4.40;1.47;;;;;;;;;;5093319;28;20300;-77
2022/09/29 03:59:45;;;;;;;4.30;1.43;;;;;;;;;;5092473;28;20741;-77
2022/09/29 04:02:12;;;;;;;3.47;1.47;;;;;;;;;;5084026;28;20230;-77
2022/09/29 04:04:41;;;;;;;5.60;1.53;;;;;;;;;;5093842;28;20272;-77
2022/09/29 04:07:08;;;;;;;4.50;1.80;;;;;;;;;;5100781;28;20331;-77
2022/09/29 04:09:35;;;;;;;4.50;1.50;;;;;;;;;;5104399;28;20194;-77
2022/09/29 04:12:02;;;;;;;4.83;1.40;;;;;;;;;;5091282;28;20286;-77
2022/09/29 04:14:30;;;;;;;7.10;1.70;;;;;;;;;;5095402;28;20304;-77
2022/09/29 04:16:57;;;;;;;4.63;1.20;;;;;;;;;;5095394;28;20233;-77
2022/09/29 04:19:24;;;;;;;4.53;1.50;;;;;;;;;;5092166;28;20302;-77
2022/09/29 04:21:53;;;;;;;4.83;1.40;;;;;;;;;;5091551;28;20296;-77
2022/09/29 04:24:20;;;;;;;4.17;1.50;;;;;;;;;;5084547;28;20289;-77
2022/09/29 04:26:47;;;;;;;4.87;1.40;;;;;;;;;;5093399;28;20285;-77
2022/09/29 04:29:14;;;;;;;6.90;1.60;;;;;;;;;;5087801;28;20283;-77
2022/09/29 04:31:42;;;;;;;4.87;1.50;;;;;;;;;;5079665;28;20222;-77
2022/09/29 04:34:09;;;;;;;5.53;1.70;;;;;;;;;;5083814;28;20258;-77
2022/09/29 04:36:36;;;;;;;3.53;1.50;;;;;;;;;;5086610;28;20353;-77
2022/09/29 04:39:05;;;;;;;7.77;1.70;;;;;;;;;;5100366;28;20325;-77
2022/09/29 04:41:34;;;;;;;6.50;1.73;;;;;;;;;;5100354;28;20199;-77
2022/09/29 04:44:02;;;;;;;7.13;1.63;;;;;;;;;;5092131;28;20199;-77
2022/09/29 04:46:29;;;;;;;5.97;1.80;;;;;;;;;;5092046;28;20205;-77
2022/09/29 04:48:56;;;;;;;8.73;1.80;;;;;;;;;;5086489;28;20237;-77
2022/09/29 04:51:24;;;;;;;6.57;1.67;;;;;;;;;;5083582;28;20298;-77
2022/09/29 04:53:52;;;;;;;4.67;1.63;;;;;;;;;;5089240;28;20639;-77
2022/09/29 04:56:20;;;;;;;5.23;2.00;;;;;;;;;;5091252;28;20271;-77
2022/09/29 04:58:48;;;;;;;6.37;2.17;;;;;;;;;;5081012;28;20207;-77
2022/09/29 05:01:15;;;;;;;6.03;2.10;;;;;;;;;;5102857;28;20259;-77
2022/09/29 05:03:42;;;;;;;8.30;2.20;;;;;;;;;;5092106;28;20385;-77
2022/09/29 05:06:10;;;;;;;7.67;2.10;;;;;;;;;;5093483;28;20289;-77
2022/09/29 05:08:37;;;;;;;4.30;2.10;;;;;;;;;;5090722;28;20279;-77
2022/09/29 05:11:05;;;;;;;7.43;2.13;;;;;;;;;;5102792;28;20684;-77
2022/09/29 05:13:34;;;;;;;5.03;1.90;;;;;;;;;;5092999;28;20213;-77
2022/09/29 05:16:01;;;;;;;6.80;2.30;;;;;;;;;;5101392;28;20315;-77
2022/09/29 05:18:29;;;;;;;4.80;2.03;;;;;;;;;;5088883;28;20195;-77
2022/09/29 05:20:56;;;;;;;5.73;2.03;;;;;;;;;;5109028;28;20226;-77
2022/09/29 05:23:23;;;;;;;6.37;2.10;;;;;;;;;;5095836;28;20226;-76
2022/09/29 05:25:50;;;;;;;5.63;2.23;;;;;;;;;;5096225;28;20235;-77
2022/09/29 05:28:18;;;;;;;4.60;2.10;;;;;;;;;;5108194;28;20278;-77
2022/09/29 05:30:49;;;;;;;5.13;2.63;;;;;;;;;;5084384;28;20230;-78
2022/09/29 05:33:16;;;;;;;6.53;2.13;;;;;;;;;;5097039;28;20256;-77
2022/09/29 05:35:44;;;;;;;4.50;2.00;;;;;;;;;;5097980;28;20288;-77
2022/09/29 05:38:12;;;;;;;4.80;2.27;;;;;;;;;;5101859;28;20289;-77
2022/09/29 05:40:39;;;;;;;7.73;2.40;;;;;;;;;;5082894;28;20289;-77
2022/09/29 05:43:06;;;;;;;5.67;2.00;;;;;;;;;;5096063;28;20617;-76
2022/09/29 05:45:33;;;;;;;7.33;2.23;;;;;;;;;;5087717;28;20670;-76
2022/09/29 05:48:02;;;;;;;7.47;2.17;;;;;;;;;;5085202;28;20290;-76
2022/09/29 05:50:31;;;;;;;5.77;2.03;;;;;;;;;;5080513;28;20569;-77
2022/09/29 05:53:02;;;;;;;3.53;1.80;;;;;;;;;;5087872;28;20226;-77
2022/09/29 05:55:30;;;;;;;7.87;2.20;;;;;;;;;;5090788;28;20220;-76
2022/09/29 05:57:57;;;;;;;5.43;2.00;;;;;;;;;;5092890;28;20213;-76
2022/09/29 06:00:24;;;;;;;5.37;2.37;;;;;;;;;;5087650;28;20285;-77
2022/09/29 06:02:51;;;;;;;4.57;2.23;;;;;;;;;;5082377;28;20298;-77
2022/09/29 06:05:20;;;;;;;4.37;2.00;;;;;;;;;;5089558;28;20726;-77
2022/09/29 06:07:48;;;;;;;6.87;2.10;;;;;;;;;;5089518;28;20302;-77
2022/09/29 06:10:15;;;;;;;5.27;2.50;;;;;;;;;;5089630;28;20722;-77
2022/09/29 06:12:42;;;;;;;4.50;2.10;;;;;;;;;;5085481;28;20191;-77
2022/09/29 06:15:10;;;;;;;5.33;2.37;;;;;;;;;;5089087;28;20218;-77
2022/09/29 06:17:38;;;;;;;3.80;2.13;;;;;;;;;;5093469;28;20285;-77
2022/09/29 06:20:06;;;;;;;5.83;2.30;;;;;;;;;;5088107;28;20542;-77
2022/09/29 06:22:34;;;;;;;7.30;2.20;;;;;;;;;;5092801;28;20272;-77
2022/09/29 06:25:02;;;;;;;4.47;2.17;;;;;;;;;;5092140;28;20273;-77
2022/09/29 06:27:29;;;;;;;5.23;2.10;;;;;;;;;;5085023;28;20198;-77
2022/09/29 06:29:56;;;;;;;6.00;2.10;;;;;;;;;;5100970;28;20233;-77
2022/09/29 06:32:23;;;;;;;8.53;1.97;;;;;;;;;;5088838;28;20226;-77
2022/09/29 06:37:38;;;;;;;2.93;1.90;;;;;;;;;;5095696;28;20235;-77
2022/09/29 06:40:07;;;;;;;5.30;1.80;;;;;;;;;;5083581;28;20317;-77
2022/09/29 06:42:34;;;;;;;4.97;1.60;;;;;;;;;;5086594;28;20205;-77
2022/09/29 06:45:02;;;;;;;4.30;1.50;;;;;;;;;;5085524;28;20222;-76
2022/09/29 06:47:29;;;;;;;3.47;1.63;;;;;;;;;;5089225;28;20290;-77
2022/09/29 06:49:57;;;;;;;4.93;1.60;;;;;;;;;;5090902;28;20296;-77
2022/09/29 06:52:24;;;;;;;4.40;1.73;;;;;;;;;;5086025;28;20573;-77
2022/09/29 06:54:52;;;;;;;4.43;1.60;;;;;;;;;;5088346;28;20305;-77
2022/09/29 06:57:22;;;;;;;3.40;1.97;;;;;;;;;;5099686;28;20237;-77
2022/09/29 06:59:49;;;;;;;5.90;2.00;;;;;;;;;;5109803;28;20649;-77
2022/09/29 07:02:17;;;;;;;3.77;1.93;;;;;;;;;;5098159;28;20229;-77
2022/09/29 07:04:46;;;;;;;4.87;2.10;;;;;;;;;;5095674;28;20689;-77
2022/09/29 07:07:13;;;;;;;3.70;1.87;;;;;;;;;;5090494;28;20218;-77
2022/09/29 07:09:41;;;;;;;6.13;1.80;;;;;;;;;;5079556;28;20230;-77
2022/09/29 07:12:11;;;;;;;3.70;1.30;;;;;;;;;;5090071;28;20207;-77
2022/09/29 07:14:38;;;;;;;4.30;1.33;;;;;;;;;;5092589;28;20241;-77
2022/09/29 07:17:05;;;;;;;3.93;1.30;;;;;;;;;;5082576;28;20221;-77
2022/09/29 07:19:32;;;;;;;3.37;1.50;;;;;;;;;;5077013;28;20277;-77
2022/09/29 07:21:59;;;;;;;4.97;1.43;;;;;;;;;;5100285;28;20220;-77
2022/09/29 07:24:27;;;;;;;2.40;1.50;;;;;;;;;;5112883;28;20292;-77
2022/09/29 07:26:54;;;;;;;7.53;2.00;;;;;;;;;;5096817;28;20678;-77
2022/09/29 07:29:23;;;;;;;4.27;2.10;;;;;;;;;;5092997;28;20206;-76
2022/09/29 07:31:51;;;;;;;3.40;2.00;;;;;;;;;;5093252;28;20285;-77
2022/09/29 07:34:18;;;;;;;4.30;1.93;;;;;;;;;;5082099;28;20276;-76
2022/09/29 07:36:45;;;;;;;4.53;1.50;;;;;;;;;;5080315;28;20286;-77
2022/09/29 07:39:13;;;;;;;2.53;1.30;;;;;;;;;;5093567;28;20313;-77
2022/09/29 07:41:40;;;;;;;3.70;1.50;;;;;;;;;;5099885;28;20240;-77
2022/09/29 07:44:07;;;;;;;3.93;1.47;;;;;;;;;;5090473;28;20281;-77
2022/09/29 07:46:36;;;;;;;3.13;1.60;;;;;;;;;;5095485;28;20286;-77
2022/09/29 07:49:03;;;;;;;4.60;1.67;;;;;;;;;;5102453;28;20233;-77
2022/09/29 07:51:31;;;;;;;4.27;1.50;;;;;;;;;;5092748;28;20239;-78
2022/09/29 07:54:01;;;;;;;3.10;1.10;;;;;;;;;;5112910;28;20563;-78
2022/09/29 07:56:29;;;;;;;4.30;1.40;;;;;;;;;;5075617;28;20638;-76
2022/09/29 07:58:56;;;;;;;5.18;1.77;;;;;;;;;;5089732;28;20206;-76
2022/09/29 08:01:26;;;;;;;4.13;1.20;;;;;;;;;;5099364;28;20230;-78
2022/09/29 08:03:55;;;;;;;4.38;1.40;;;;;;;;;;5091926;28;20264;-78
2022/09/29 08:06:23;;;;;;;4.50;1.67;;;;;;;;;;5089182;28;20229;-78
2022/09/29 08:08:51;;;;;;;3.90;1.50;;;;;;;;;;5090222;28;20244;-76
2022/09/29 08:11:19;;;;;;;3.10;1.67;;;;;;;;;;5088773;28;20207;-76
2022/09/29 08:13:47;;;;;;;4.70;1.50;;;;;;;;;;5087002;28;20230;-76
2022/09/29 08:16:15;;;;;;;3.42;1.20;;;;;;;;;;5092329;28;20313;-78
2022/09/29 08:18:43;;;;;;;2.80;1.00;;;;;;;;;;5083469;28;20202;-76
2022/09/29 08:21:13;;;;;;;3.35;1.30;;;;;;;;;;5084886;28;20198;-76
2022/09/29 08:23:41;;;;;;;2.67;1.02;;;;;;;;;;5110114;28;20205;-76
2022/09/29 08:26:09;;;;;;;3.33;1.08;;;;;;;;;;5081537;28;20219;-76
2022/09/29 08:28:37;;;;;;;3.28;1.02;;;;;;;;;;5072278;28;20286;-77
2022/09/29 08:31:05;;;;;;;3.80;1.02;;;;;;;;;;5094437;28;20293;-77
2022/09/29 08:33:32;;;;;;;4.30;1.05;;;;;;;;;;5112948;28;20280;-76
2022/09/29 08:36:02;;;;;;;2.05;0.82;;;;;;;;;;5116703;28;20232;-77
2022/09/29 08:38:31;;;;;;;4.40;1.20;;;;;;;;;;5078682;28;20261;-77
2022/09/29 08:41:05;;;;;;;3.95;1.33;;;;;;;;;;5075396;28;20290;-77
2022/09/29 08:43:33;;;;;;;3.53;1.20;;;;;;;;;;5105184;28;20567;-77
2022/09/29 08:46:02;;;;;;;4.88;1.55;;;;;;;;;;5086490;28;20218;-77
2022/09/29 08:48:32;;;;;;;2.95;1.00;;;;;;;;;;5097558;28;20293;-76
2022/09/29 08:51:00;;;;;;;3.33;1.20;;;;;;;;;;5075616;28;20293;-76
2022/09/29 08:53:45;;;;;;;3.53;1.10;;;;;;;;;;5088970;28;20244;-76
2022/09/29 08:56:15;;;;;;;2.47;1.00;;;;;;;;;;5089031;28;20304;-76
2022/09/29 08:58:43;;;;;;;4.18;1.40;;;;;;;;;;5110238;28;20285;-77
2022/09/29 09:01:17;;;;;;;2.60;1.30;;;;;;;;;;5080386;28;20338;-77
2022/09/29 09:04:18;;;;;;;4.75;1.90;;;;;;;;;;5084020;28;20222;-76
2022/09/29 09:06:51;;;;;;;6.03;2.20;;;;;;;;;;5071197;28;20645;-77
2022/09/29 09:12:27;;;;;;;4.60;2.30;;;;;;;;;;5109261;27;20538;-79
2022/09/29 09:15:01;;;;;;;4.57;1.75;;;;;;;;;;5109944;28;20288;-76
2022/09/29 09:17:39;;;;;;;5.15;1.40;;;;;;;;;;5097269;28;20228;-76
2022/09/29 09:20:15;;;;;;;4.47;1.55;;;;;;;;;;5109848;28;20279;-79
2022/09/29 09:22:47;;;;;;;1.80;1.10;;;;;;;;;;5093187;28;20284;-76
2022/09/29 09:25:20;;;;;;;2.65;1.00;;;;;;;;;;5084511;28;20322;-77
2022/09/29 09:27:52;;;;;;;2.83;1.10;;;;;;;;;;5083634;28;20238;-77
2022/09/29 09:30:20;;;;;;;2.80;1.00;;;;;;;;;;5098064;28;20308;-77
2022/09/29 09:32:51;;;;;;;1.75;0.88;;;;;;;;;;5102380;28;20741;-77
2022/09/29 09:35:25;;;;;;;2.47;1.13;;;;;;;;;;5088278;28;20286;-77
2022/09/29 09:37:54;;;;;;;2.83;0.98;;;;;;;;;;5090370;28;20285;-77
2022/09/29 09:40:24;;;;;;;2.83;0.90;;;;;;;;;;5089775;28;20289;-79
2022/09/29 09:42:54;;;;;;;2.47;0.80;;;;;;;;;;5095995;28;20233;-77
2022/09/29 09:45:26;;;;;;;3.05;1.20;;;;;;;;;;5092017;28;20289;-77
2022/09/29 09:47:57;;;;;;;1.83;1.00;;;;;;;;;;5092164;28;20228;-77
2022/09/29 09:50:25;;;;;;;3.30;1.00;;;;;;;;;;5087686;28;20261;-77
2022/09/29 09:52:53;;;;;;;1.77;0.80;;;;;;;;;;5088793;28;20658;-77
2022/09/29 09:55:23;;;;;;;2.25;0.98;;;;;;;;;;5100076;28;20241;-77
2022/09/29 09:58:07;;;;;;;2.65;0.60;;;;;;;;;;5109324;28;20197;-77
2022/09/29 10:00:36;;;;;;;3.67;0.98;;;;;;;;;;5109287;28;20283;-77
2022/09/29 10:03:05;;;;;;;1.70;0.70;;;;;;;;;;5110590;28;20300;-76
2022/09/29 10:05:36;;;;;;;2.53;0.95;;;;;;;;;;5098324;28;20305;-77
2022/09/29 10:08:04;;;;;;;2.20;0.60;;;;;;;;;;5097009;28;20222;-77
2022/09/29 10:10:31;;;;;;;2.13;0.77;;;;;;;;;;5089872;28;20326;-76
2022/09/29 10:13:02;;;;;;;4.18;0.90;;;;;;;;;;5081719;28;20198;-76
2022/09/29 10:15:33;;;;;;;1.88;0.73;;;;;;;;;;5091642;28;20621;-77
2022/09/29 10:18:03;;;;;;;1.95;0.55;;;;;;;;;;5089789;28;20376;-77
2022/09/29 10:20:34;;;;;;;2.38;0.40;;;;;;;;;;5093355;28;20285;-77
2022/09/29 10:23:16;;;;;;;1.63;0.55;;;;;;;;;;5098158;28;20234;-78
2022/09/29 10:29:17;;;;;;;1.23;0.50;;;;;;;;;;5034496;28;20216;-77
2022/09/29 10:31:58;;;;;;;1.13;0.47;;;;;;;;;;5025479;28;20290;-78
2022/09/29 10:34:25;;;;;;;1.80;0.47;;;;;;;;;;5020017;28;20246;-78
2022/09/29 10:36:53;;;;;;;1.20;0.50;;;;;;;;;;5030477;28;20278;-78
2022/09/29 10:39:31;;;;;;;1.52;0.40;;;;;;;;;;5036409;28;20258;-78
2022/09/29 10:41:58;;;;;;;2.35;0.52;;;;;;;;;;5037028;28;20234;-78
2022/09/29 10:44:30;;;;;;;3.10;0.75;;;;;;;;;;5030921;28;20201;-78
2022/09/29 10:46:59;;;;;;;2.00;0.50;;;;;;;;;;5047937;28;20235;-77
2022/09/29 10:49:28;;;;;;;1.15;0.52;;;;;;;;;;5070601;28;20207;-77
2022/09/29 10:52:00;;;;;;;0.95;0.50;;;;;;;;;;5072371;28;20259;-77
2022/09/29 10:54:28;;;;;;;1.17;0.50;;;;;;;;;;5070566;28;20284;-78
2022/09/29 10:56:56;;;;;;;1.70;0.50;;;;;;;;;;5069713;28;20204;-77
2022/09/29 10:59:24;;;;;;;2.28;0.70;;;;;;;;;;5073630;28;20208;-78
2022/09/29 11:01:54;;;;;;;1.15;0.60;;;;;;;;;;5064149;28;20191;-77
2022/09/29 11:04:26;;;;;;;3.42;0.50;;;;;;;;;;5069652;28;20623;-79
2022/09/29 11:06:54;;;;;;;0.80;0.50;;;;;;;;;;5075602;28;20646;-76
2022/09/29 11:09:29;;;;;;;1.17;0.50;;;;;;;;;;5078007;28;20252;-76
2022/09/29 11:11:58;;;;;;;0.75;0.50;;;;;;;;;;5087954;28;20308;-76
2022/09/29 11:14:26;;;;;;;3.03;0.57;;;;;;;;;;5073275;28;20195;-76
2022/09/29 11:16:54;;;;;;;1.25;0.38;;;;;;;;;;5055259;28;20296;-76
2022/09/29 11:19:21;;;;;;;2.92;0.52;;;;;;;;;;5058341;28;20214;-76
2022/09/29 11:22:15;;;;;;;1.85;0.40;;;;;;;;;;5072666;28;20281;-76
2022/09/29 11:24:50;;;;;;;1.20;0.40;;;;;;;;;;5094657;28;20253;-77
2022/09/29 11:27:26;;;;;;;3.78;0.50;;;;;;;;;;5093900;28;20202;-76
2022/09/29 11:29:59;;;;;;;3.70;0.65;;;;;;;;;;5094429;28;20639;-76
2022/09/29 11:32:32;;;;;;;2.03;0.40;;;;;;;;;;5092593;28;20262;-76
2022/09/29 11:35:11;;;;;;;4.10;0.63;;;;;;;;;;5072402;28;20278;-77
2022/09/29 11:37:44;;;;;;;2.67;0.70;;;;;;;;;;5084991;28;20202;-77
2022/09/29 11:40:18;;;;;;;1.47;0.60;;;;;;;;;;5093940;28;20226;-77
2022/09/29 11:43:00;;;;;;;1.23;0.80;;;;;;;;;;5093896;28;20285;-76
2022/09/29 11:45:33;;;;;;;2.50;0.77;;;;;;;;;;5091735;28;20190;-76
2022/09/29 11:48:22;;;;;;;1.97;0.70;;;;;;;;;;5093462;28;20285;-76
2022/09/29 11:50:52;;;;;;;3.33;0.70;;;;;;;;;;5092471;28;20281;-76
2022/09/29 11:53:26;;;;;;;0.80;0.40;;;;;;;;;;5075188;28;20229;-76
2022/09/29 11:56:08;;;;;;;1.80;0.60;;;;;;;;;;5073223;28;20286;-75
2022/09/29 11:58:53;;;;;;;1.63;0.53;;;;;;;;;;5060280;28;20294;-76
2022/09/29 12:01:26;;;;;;;2.00;0.60;;;;;;;;;;5081369;28;20198;-76
2022/09/29 12:04:02;;;;;;;2.33;0.70;;;;;;;;;;5093385;28;20289;-76
2022/09/29 12:06:36;;;;;;;2.55;0.70;;;;;;;;;;5091106;28;20650;-78
2022/09/29 12:09:08;;;;;;;2.25;0.60;;;;;;;;;;5053374;28;20283;-77
2022/09/29 12:11:41;;;;;;;1.20;0.63;;;;;;;;;;5074181;28;20240;-76
2022/09/29 12:14:14;;;;;;;1.95;0.50;;;;;;;;;;5093339;28;20237;-76
2022/09/29 12:16:45;;;;;;;1.52;0.50;;;;;;;;;;5082104;28;20282;-77
2022/09/29 12:19:15;;;;;;;3.03;0.70;;;;;;;;;;5075741;28;20233;-77
2022/09/29 12:21:43;;;;;;;2.67;0.70;;;;;;;;;;5088720;28;20217;-77
2022/09/29 12:24:15;;;;;;;1.40;0.55;;;;;;;;;;5078466;28;20207;-77
2022/09/29 12:26:43;;;;;;;5.45;0.60;;;;;;;;;;5067337;28;20287;-77
2022/09/29 12:29:17;;;;;;;0.80;0.43;;;;;;;;;;5092876;28;20234;-77
2022/09/29 12:31:46;;;;;;;2.45;0.60;;;;;;;;;;5052123;28;20302;-77
2022/09/29 12:34:15;;;;;;;2.78;0.50;;;;;;;;;;5053144;28;20195;-77
2022/09/29 12:36:49;;;;;;;1.02;0.43;;;;;;;;;;5059334;28;20218;-77
2022/09/29 12:39:32;;;;;;;1.70;0.60;;;;;;;;;;5079060;28;20289;-77
2022/09/29 12:42:04;;;;;;;0.93;0.43;;;;;;;;;;5050840;28;20203;-77
2022/09/29 12:44:37;;;;;;;1.65;0.40;;;;;;;;;;5085101;28;20279;-77
2022/09/29 12:47:09;;;;;;;1.23;0.40;;;;;;;;;;5091830;28;20286;-77
2022/09/29 12:49:40;;;;;;;0.93;0.30;;;;;;;;;;5092891;28;20277;-77
2022/09/29 12:52:13;;;;;;;0.73;0.30;;;;;;;;;;5091567;28;20305;-77
2022/09/29 12:54:44;;;;;;;2.65;0.47;;;;;;;;;;5080744;28;20226;-77
2022/09/29 12:57:14;;;;;;;1.20;0.40;;;;;;;;;;5082079;28;20199;-77
2022/09/29 12:59:45;;;;;;;1.73;0.22;;;;;;;;;;5072371;28;20280;-77
2022/09/29 13:02:26;;;;;;;1.10;0.50;;;;;;;;;;5072205;28;20711;-77
2022/09/29 13:05:06;;;;;;;1.40;0.60;;;;;;;;;;5072205;28;20207;-78
2022/09/29 13:07:46;;;;;;;2.00;0.63;;;;;;;;;;5071642;28;20305;-77
2022/09/29 13:10:28;;;;;;;2.45;0.50;;;;;;;;;;5072157;28;20326;-77
2022/09/29 13:13:04;;;;;;;0.70;0.45;;;;;;;;;;5072141;28;20227;-77
2022/09/29 13:15:36;;;;;;;1.17;0.52;;;;;;;;;;5072180;28;20291;-77
2022/09/29 13:18:12;;;;;;;1.58;0.60;;;;;;;;;;5072114;28;20281;-77
2022/09/29 13:20:43;;;;;;;2.83;0.40;;;;;;;;;;5072578;28;20199;-77
2022/09/29 13:23:17;;;;;;;2.35;0.60;;;;;;;;;;5071785;28;20264;-77
2022/09/29 13:25:57;;;;;;;0.50;0.40;;;15.20;99.90;;;;;;5072180;28;20282;-77
2022/09/29 13:28:31;;;;;;;2.45;0.40;;;15.20;99.90;;;;;;5083579;28;20198;-78
2022/09/29 13:31:02;;;;;;;1.60;0.40;;;;;;;;;;5090667;28;20289;-77
2022/09/29 13:33:29;;;;;;;1.17;0.50;;;15.60;99.90;;;;;;5092433;28;20232;-77
2022/09/29 13:35:57;;;;;;;0.52;0.25;;;16.40;99.90;;;;;;5091837;28;20639;-77
2022/09/29 13:38:25;;;;;;;0.75;0.40;;;;;;;;;;5092380;28;20752;-77
2022/09/29 13:41:09;;;;;;;0.77;0.40;;;;;;;;;;5092191;28;20233;-77
2022/09/29 13:43:38;;;;;;;1.25;0.50;;;;;;;;;;5079536;28;20198;-77
2022/09/29 13:46:28;;;;;;;0.90;0.30;;;16.90;99.90;;;;;;5071707;28;20210;-77
2022/09/29 13:49:03;;;;;;;1.08;0.40;;;17.00;99.90;;;;;;5071846;28;20210;-78
2022/09/29 13:51:44;;;;;;;1.05;0.40;;;17.70;99.90;;;;;;5071967;28;20293;-78
2022/09/29 13:54:29;;;;;;;2.00;0.52;;;18.30;99.90;;;;;;5071488;28;20285;-78
2022/09/29 13:57:29;;;;;;;1.65;0.45;;;19.00;99.90;;;;;;5072275;28;20234;-77
2022/09/29 14:00:20;;;;;;;1.10;0.40;;;21.10;99.90;;;;;;5054835;28;20953;-77
2022/09/29 14:03:01;;;;;;;0.50;0.40;;;20.90;99.90;;;;;;5052430;28;20204;-78
2022/09/29 14:05:48;;;;;;;2.38;0.50;;;21.30;99.90;;;;;;5084731;28;20208;-78
2022/09/29 14:08:22;;;;;;;1.40;0.43;;;21.50;99.90;;;;;;5095601;28;20759;-78
2022/09/29 14:10:53;;;;;;;1.13;0.50;;;21.10;99.90;;;;;;5095726;28;20324;-78
2022/09/29 14:13:26;;;;;;;1.30;0.50;;;20.50;99.90;;;;;;5095538;28;20257;-78
2022/09/29 14:16:07;;;;;;;1.45;0.60;;;20.40;99.90;;;;;;5078581;28;20238;-78
2022/09/29 14:18:40;;;;;;;1.45;0.43;;;22.30;99.90;;;;;;5077792;28;20741;-78
2022/09/29 14:21:12;;;;;;;1.67;0.40;;;22.00;99.90;;;;;;5095114;28;20285;-77
2022/09/29 14:23:53;;;;;;;1.42;0.30;;;21.10;99.90;;;;;;5082076;28;20203;-78
2022/09/29 14:26:46;;;;;;;0.80;0.40;;;19.00;99.90;;;;;;5091901;28;20558;-77
2022/09/29 14:29:21;;;;;;;0.90;0.40;;;17.70;99.90;;;;;;5085854;28;20290;-78
2022/09/29 14:31:51;;;;;;;0.98;0.43;;;16.90;99.90;;;;;;5075095;28;20285;-77
2022/09/29 14:34:23;;;;;;;2.08;0.50;;;16.10;99.90;;;;;;5075094;28;20199;-77
2022/09/29 14:36:53;;;;;;;4.28;0.73;;;16.00;99.90;;;;;;5074826;28;20199;-76
2022/09/29 14:39:22;;;;;;;1.15;0.85;;;15.70;99.90;;;;;;5082064;28;20226;-78
2022/09/29 14:41:49;;;;;;;2.15;0.80;;;15.50;99.90;;;;;;5085335;28;20271;-76
2022/09/29 14:44:21;;;;;;;1.88;0.70;;;15.30;99.90;;;;;;5080213;28;20643;-76
2022/09/29 14:53:50;;;;;;;2.38;0.60;;;14.80;99.90;;;;;;5076938;28;20276;-77
2022/09/29 14:56:34;;;;;;;1.80;0.30;;;16.00;99.90;;;;;;5060366;28;20282;-76
2022/09/29 14:59:13;;;;;;;0.95;0.30;;;17.10;99.90;;;;;;5086861;28;20245;-77
2022/09/29 15:01:57;;;;;;;0.73;0.40;;;17.90;99.90;;;;;;5077317;28;20201;-77
2022/09/29 15:04:24;;;;;;;2.00;0.47;;;17.90;99.90;;;;;;5093601;28;20233;-77
2022/09/29 15:06:52;;;;;;;0.90;0.30;;;17.50;99.90;;;;;;5087924;28;20668;-77